메인 페이지
METAR-TAF:

METAR-TAF

공항 :

시카고 오헤어 국제공항

시카고, 일리노이, 미국

위도: 41-58-47N, 경도: 087-54-16W, 고도: 203m

현재 날씨관측

예보는 1 시간 1분 전, 01:51시(UTC)에 발표되었습니다.
8kt
온도 -1°C
습도 80%
기압 1013 hPa
시정: 14.5km
고도 4100ft 상공 흐림

METAR: KORD 130151Z 27008KT 9SM OVC041 M01/M04 A2990 RMK AO2 SLP132 T10061039

시각: 20:52 (02:52 UTC)

예보

예보는 1 시간 13분 전, 01:39시(UTC)에 발표되었습니다.
예보 대상 시간: 13일 02시부터 14일 06시까지 (UTC)
11kt
시정: 10km
고도 2000ft 상공 구름 조금
고도 3500ft 상공 흐림
13일 0300시부터 (UTC)
서남서6kt
시정: 10km
고도 3500ft 상공 구름 보통
13일 1300시부터 (UTC)
남남동7kt
시정: 10km
고도 3500ft 상공 구름 조금
고도 20000ft 상공 구름 많음
13일 2200시부터 (UTC)
남동8kt
시정: 10km
고도 1500ft 상공 구름 많음
14일 0100시부터 (UTC)
8kt
시정: 8.0km
고도 400ft 상공 구름 보통
고도 800ft 상공 흐림
약한비, 박무

TAF: KORD 130139Z 1302/1406 27011KT P6SM FEW020 OVC035 FM130300 24006KT P6SM SCT035 FM131300 15007KT P6SM FEW035 BKN200 FM132200 13008KT P6SM BKN015 FM140100 09008KT 5SM -RA BR SCT004 OVC008

4,000개 이상의 공항 관측 자료 및 예보 (METAR 및 TAF 보고).

지도상에서 검색 가능한 기상관측소가 노란 점과 빨간 점으로 표시되어 있습니다.

기상관측소 명을 보려면 표시 위로 마우스를 이동하세요.

날씨 관측과 예보를 보려면 클릭하세요.

지도 변경 : 확대하려면 엑스 표시가 있는 녹색 버튼, 축소하려면 빼기 표시가 있는 녹색 버튼, 다음 페이지의 지도를 보려면 녹색 화살표를 클릭하세요.


METAR-TAF: